Fredericksburg, IA (50630)

12:51 AM CST on February 07, 2016 (GMT -0600)
Spillville Iowa | | Change Station
CLOSE
Current Station
Personal Weather Station
Location: Fort Atkinson, IA
Elevation: 1129 ft
Nearby Weather Stations
Active Advisory: Blizzard Watch

Elev 1129 ft 43.17 °N, 91.97 °W | Updated 8 minutes ago

Overcast
Overcast
34.0 °F
Feels Like 27 °F
N
8.0
Wind Variable Wind from SW
Gusts 14.0 mph

Today
High -- | Low -- °F
--% Chance of Precip.
Yesterday
High -- | Low -- °F
Precip. -- in
Pressure 29.84 in
Visibility 10.0 miles
Clouds Mostly Cloudy 11000 ft
Windchill 27 °F
Dew Point 31 °F
Humidity 90%
Rainfall 0.00 in
Snow Depth Not available.
7:17 AM 5:28 PM
Waning Crescent, 2% visible
METAR KCCY 070635Z AUTO 21013KT 10SM BKN110 01/01 A2984 RMK AO2
Pressure 29.84 in
Visibility 10.0 miles
Clouds Mostly Cloudy 11000 ft
Windchill 27 °F
Dew Point 31 °F
Humidity 90%
Rainfall 0.00 in
Snow Depth Not available.
7:17 AM 5:28 PM
Waning Crescent, 2% visible
METAR KCCY 070635Z AUTO 21013KT 10SM BKN110 01/01 A2984 RMK AO2

10-Day Weather Forecast

Almanac

Astronomy

Feb. 07, 2016 Rise Set
Actual Time
Civil Twilight
Nautical Twilight
Astronomical Twilight
Moon
Length of Visible Light
Length of Day
Tomorrow will be .
, % of the Moon is Illuminated

Today's Extremes

State Highs State Lows

Community

WunderPhotos

Upload Photos

1,891,174 photos uploaded!

WunderBlog® & News

Nearby

Air Quality

  Air Quality AQ Index Pollutant
Not available.

Snow Depth

Station Depth Elevation

Earthquake Activity

City Distance Mag. Time & Date
Minimum magnitude displayed is 2.5.

Coastal Water Temperatures

Place Temperature

Stations

Nearby Weather Stations

Station Location Temp. Windchill Dew Point Humidity Wind Precip. Elev Updated Type
                   

Watches & Warnings

Blizzard Watch
Issued: 9:13 PM CST Feb. 6, 2016 – National Weather Service

... Blizzard watch remains in effect from Sunday afternoon through
Monday afternoon...

* blizzard conditions are possible from late Sunday afternoon
through Monday afternoon.

* Northwest winds gusting 35 to 45 mph could cause whiteout
conditions in blowing snow. Significant drifting of the snow is
also likely... especially in open areas and across higher terrain.

* New snow accumulation of up to 2 inches is possible.

* Travel could be very difficult to impossible... including during
the Monday morning commute.

Precautionary/preparedness actions...

A blizzard watch means there is a potential for falling and/or
blowing snow with strong winds and extremely poor visibilities.
This can lead to whiteout conditions and make travel very
dangerous.


Rogers